sensor_id;sensor_type;location;lat;lon;timestamp;pressure;altitude;pressure_sealevel;temperature;humidity
8575;BME280;4325;42.520;27.448;2022-07-22T00:01:00;101048.50;;;22.05;100.00
8575;BME280;4325;42.520;27.448;2022-07-22T00:03:27;101050.16;;;22.06;100.00
8575;BME280;4325;42.520;27.448;2022-07-22T00:05:54;101045.25;;;22.03;100.00
8575;BME280;4325;42.520;27.448;2022-07-22T00:08:21;101044.63;;;21.98;100.00
8575;BME280;4325;42.520;27.448;2022-07-22T00:10:48;101043.34;;;21.95;100.00
8575;BME280;4325;42.520;27.448;2022-07-22T00:13:14;101049.47;;;21.89;100.00
8575;BME280;4325;42.520;27.448;2022-07-22T00:15:41;101039.13;;;21.89;100.00
8575;BME280;4325;42.520;27.448;2022-07-22T00:18:10;101053.56;;;21.91;100.00
8575;BME280;4325;42.520;27.448;2022-07-22T00:20:36;101051.78;;;21.87;100.00
8575;BME280;4325;42.520;27.448;2022-07-22T00:23:03;101039.50;;;21.79;100.00
8575;BME280;4325;42.520;27.448;2022-07-22T00:25:30;101046.47;;;21.73;100.00
8575;BME280;4325;42.520;27.448;2022-07-22T00:27:57;101053.38;;;21.67;100.00
8575;BME280;4325;42.520;27.448;2022-07-22T00:30:24;101038.22;;;21.56;100.00
8575;BME280;4325;42.520;27.448;2022-07-22T00:32:51;101027.66;;;21.41;100.00
8575;BME280;4325;42.520;27.448;2022-07-22T00:35:19;101037.81;;;21.37;100.00
8575;BME280;4325;42.520;27.448;2022-07-22T00:37:46;101037.03;;;21.36;100.00
8575;BME280;4325;42.520;27.448;2022-07-22T00:40:12;101036.19;;;21.36;100.00
8575;BME280;4325;42.520;27.448;2022-07-22T00:42:39;101037.16;;;21.40;100.00
8575;BME280;4325;42.520;27.448;2022-07-22T00:45:07;101030.75;;;21.39;100.00
8575;BME280;4325;42.520;27.448;2022-07-22T00:47:35;101032.06;;;21.42;100.00
8575;BME280;4325;42.520;27.448;2022-07-22T00:50:03;101036.31;;;21.39;100.00
8575;BME280;4325;42.520;27.448;2022-07-22T00:52:32;101034.72;;;21.38;100.00
8575;BME280;4325;42.520;27.448;2022-07-22T00:54:59;101048.28;;;21.40;100.00
8575;BME280;4325;42.520;27.448;2022-07-22T00:57:27;101039.66;;;21.33;100.00
8575;BME280;4325;42.520;27.448;2022-07-22T00:59:55;101044.09;;;21.34;100.00
8575;BME280;4325;42.520;27.448;2022-07-22T01:02:23;101046.59;;;21.27;100.00
8575;BME280;4325;42.520;27.448;2022-07-22T01:04:50;101042.81;;;21.23;100.00
8575;BME280;4325;42.520;27.448;2022-07-22T01:07:17;101044.59;;;21.27;100.00
8575;BME280;4325;42.520;27.448;2022-07-22T01:09:46;101041.47;;;21.29;100.00
8575;BME280;4325;42.520;27.448;2022-07-22T01:12:13;101043.44;;;21.28;100.00
8575;BME280;4325;42.520;27.448;2022-07-22T01:14:39;101044.28;;;21.29;100.00
8575;BME280;4325;42.520;27.448;2022-07-22T01:17:06;101035.91;;;21.29;100.00
8575;BME280;4325;42.520;27.448;2022-07-22T01:19:35;101036.56;;;21.26;100.00
8575;BME280;4325;42.520;27.448;2022-07-22T01:22:03;101034.13;;;21.24;100.00
8575;BME280;4325;42.520;27.448;2022-07-22T01:24:30;101026.94;;;21.23;100.00
8575;BME280;4325;42.520;27.448;2022-07-22T01:26:57;101019.59;;;21.19;100.00
8575;BME280;4325;42.520;27.448;2022-07-22T01:29:24;101026.81;;;21.11;100.00
8575;BME280;4325;42.520;27.448;2022-07-22T01:31:51;101022.56;;;21.14;100.00
8575;BME280;4325;42.520;27.448;2022-07-22T01:34:18;101020.63;;;21.05;100.00
8575;BME280;4325;42.520;27.448;2022-07-22T01:36:45;101021.28;;;21.02;100.00
8575;BME280;4325;42.520;27.448;2022-07-22T01:39:13;101026.69;;;20.99;100.00
8575;BME280;4325;42.520;27.448;2022-07-22T01:41:41;101023.44;;;20.97;100.00
8575;BME280;4325;42.520;27.448;2022-07-22T01:44:07;101029.63;;;21.02;100.00
8575;BME280;4325;42.520;27.448;2022-07-22T01:46:34;101026.03;;;21.02;100.00
8575;BME280;4325;42.520;27.448;2022-07-22T01:49:01;101021.94;;;20.99;100.00
8575;BME280;4325;42.520;27.448;2022-07-22T01:51:28;101030.47;;;20.94;100.00
8575;BME280;4325;42.520;27.448;2022-07-22T01:53:55;101028.84;;;20.93;100.00
8575;BME280;4325;42.520;27.448;2022-07-22T01:56:23;101028.84;;;20.93;100.00
8575;BME280;4325;42.520;27.448;2022-07-22T01:58:50;101023.25;;;20.93;100.00
8575;BME280;4325;42.520;27.448;2022-07-22T02:01:17;101028.69;;;20.90;100.00
8575;BME280;4325;42.520;27.448;2022-07-22T02:03:44;101016.75;;;20.81;100.00
8575;BME280;4325;42.520;27.448;2022-07-22T02:06:11;101024.44;;;20.84;100.00
8575;BME280;4325;42.520;27.448;2022-07-22T02:08:38;101022.66;;;20.88;100.00
8575;BME280;4325;42.520;27.448;2022-07-22T02:11:05;101014.13;;;20.84;100.00
8575;BME280;4325;42.520;27.448;2022-07-22T02:13:33;101016.44;;;20.82;100.00
8575;BME280;4325;42.520;27.448;2022-07-22T02:16:00;101015.63;;;20.82;100.00
8575;BME280;4325;42.520;27.448;2022-07-22T02:18:28;101024.78;;;20.82;100.00
8575;BME280;4325;42.520;27.448;2022-07-22T02:20:55;101011.41;;;20.76;100.00
8575;BME280;4325;42.520;27.448;2022-07-22T02:23:21;101001.94;;;20.68;100.00
8575;BME280;4325;42.520;27.448;2022-07-22T02:25:48;101020.25;;;20.69;100.00
8575;BME280;4325;42.520;27.448;2022-07-22T02:28:15;101017.63;;;20.73;100.00
8575;BME280;4325;42.520;27.448;2022-07-22T02:30:43;101019.59;;;20.72;100.00
8575;BME280;4325;42.520;27.448;2022-07-22T02:33:10;101017.94;;;20.71;100.00
8575;BME280;4325;42.520;27.448;2022-07-22T02:35:37;101005.34;;;20.74;100.00
8575;BME280;4325;42.520;27.448;2022-07-22T02:38:04;101008.47;;;20.72;100.00
8575;BME280;4325;42.520;27.448;2022-07-22T02:40:31;101008.16;;;20.65;100.00
8575;BME280;4325;42.520;27.448;2022-07-22T02:42:58;101006.19;;;20.66;100.00
8575;BME280;4325;42.520;27.448;2022-07-22T02:45:25;101008.81;;;20.62;100.00
8575;BME280;4325;42.520;27.448;2022-07-22T02:47:55;101018.13;;;20.66;100.00
8575;BME280;4325;42.520;27.448;2022-07-22T02:50:23;101006.34;;;20.69;100.00
8575;BME280;4325;42.520;27.448;2022-07-22T02:52:51;101011.91;;;20.69;100.00
8575;BME280;4325;42.520;27.448;2022-07-22T02:55:19;101010.41;;;20.72;100.00
8575;BME280;4325;42.520;27.448;2022-07-22T02:57:46;101012.06;;;20.73;100.00
8575;BME280;4325;42.520;27.448;2022-07-22T03:00:13;101007.31;;;20.73;100.00
8575;BME280;4325;42.520;27.448;2022-07-22T03:02:40;101019.75;;;20.76;100.00
8575;BME280;4325;42.520;27.448;2022-07-22T03:05:09;101008.81;;;20.71;100.00
8575;BME280;4325;42.520;27.448;2022-07-22T03:07:36;101014.97;;;20.76;100.00
8575;BME280;4325;42.520;27.448;2022-07-22T03:10:04;101014.50;;;20.74;100.00
8575;BME280;4325;42.520;27.448;2022-07-22T03:12:31;101016.16;;;20.75;100.00
8575;BME280;4325;42.520;27.448;2022-07-22T03:14:58;101020.06;;;20.74;100.00
8575;BME280;4325;42.520;27.448;2022-07-22T03:17:25;101016.81;;;20.72;100.00
8575;BME280;4325;42.520;27.448;2022-07-22T03:19:51;101015.16;;;20.71;100.00
8575;BME280;4325;42.520;27.448;2022-07-22T03:22:20;101009.75;;;20.75;100.00
8575;BME280;4325;42.520;27.448;2022-07-22T03:24:46;101010.59;;;20.75;100.00
8575;BME280;4325;42.520;27.448;2022-07-22T03:27:13;101005.97;;;20.79;100.00
8575;BME280;4325;42.520;27.448;2022-07-22T03:29:40;101012.50;;;20.83;100.00
8575;BME280;4325;42.520;27.448;2022-07-22T03:32:07;101007.75;;;20.84;100.00
8575;BME280;4325;42.520;27.448;2022-07-22T03:34:34;101016.09;;;20.92;100.00
8575;BME280;4325;42.520;27.448;2022-07-22T03:37:01;101017.03;;;20.96;100.00
8575;BME280;4325;42.520;27.448;2022-07-22T03:39:29;101012.59;;;20.95;100.00
8575;BME280;4325;42.520;27.448;2022-07-22T03:41:56;101020.78;;;21.00;100.00
8575;BME280;4325;42.520;27.448;2022-07-22T03:44:22;101014.38;;;21.09;100.00
8575;BME280;4325;42.520;27.448;2022-07-22T03:46:49;101021.91;;;21.17;100.00
8575;BME280;4325;42.520;27.448;2022-07-22T03:49:16;101021.22;;;21.20;100.00
8575;BME280;4325;42.520;27.448;2022-07-22T03:51:43;101022.19;;;21.24;100.00
8575;BME280;4325;42.520;27.448;2022-07-22T03:54:10;101018.91;;;21.22;100.00
8575;BME280;4325;42.520;27.448;2022-07-22T03:56:38;101029.38;;;21.25;100.00
8575;BME280;4325;42.520;27.448;2022-07-22T03:59:05;101024.97;;;21.24;100.00
8575;BME280;4325;42.520;27.448;2022-07-22T04:01:32;101028.50;;;21.33;100.00
8575;BME280;4325;42.520;27.448;2022-07-22T04:04:10;101031.28;;;21.33;100.00
8575;BME280;4325;42.520;27.448;2022-07-22T04:06:37;101034.72;;;21.38;100.00
8575;BME280;4325;42.520;27.448;2022-07-22T04:09:04;101026.00;;;21.40;100.00
8575;BME280;4325;42.520;27.448;2022-07-22T04:11:31;101031.56;;;21.40;100.00
8575;BME280;4325;42.520;27.448;2022-07-22T04:13:59;101029.78;;;21.44;100.00
8575;BME280;4325;42.520;27.448;2022-07-22T04:16:26;101033.50;;;21.48;100.00
8575;BME280;4325;42.520;27.448;2022-07-22T04:18:53;101035.81;;;21.46;100.00
8575;BME280;4325;42.520;27.448;2022-07-22T04:21:20;101036.09;;;21.53;100.00
8575;BME280;4325;42.520;27.448;2022-07-22T04:23:47;101037.03;;;21.57;100.00
8575;BME280;4325;42.520;27.448;2022-07-22T04:26:13;101035.69;;;21.63;100.00
8575;BME280;4325;42.520;27.448;2022-07-22T04:28:40;101033.00;;;21.75;100.00
8575;BME280;4325;42.520;27.448;2022-07-22T04:31:08;101028.66;;;21.86;100.00
8575;BME280;4325;42.520;27.448;2022-07-22T04:33:35;101032.88;;;21.92;100.00
8575;BME280;4325;42.520;27.448;2022-07-22T04:36:02;101027.59;;;21.99;100.00
8575;BME280;4325;42.520;27.448;2022-07-22T04:38:29;101030.16;;;22.04;100.00
8575;BME280;4325;42.520;27.448;2022-07-22T04:40:56;101031.09;;;22.08;100.00
8575;BME280;4325;42.520;27.448;2022-07-22T04:43:24;101032.03;;;22.12;100.00
8575;BME280;4325;42.520;27.448;2022-07-22T04:45:51;101039.53;;;22.20;100.00
8575;BME280;4325;42.520;27.448;2022-07-22T04:48:19;101036.53;;;22.25;100.00
8575;BME280;4325;42.520;27.448;2022-07-22T04:50:46;101037.59;;;22.33;100.00
8575;BME280;4325;42.520;27.448;2022-07-22T04:53:13;101041.09;;;22.42;100.00
8575;BME280;4325;42.520;27.448;2022-07-22T04:55:40;101046.00;;;22.45;100.00
8575;BME280;4325;42.520;27.448;2022-07-22T04:58:07;101044.06;;;22.58;100.00
8575;BME280;4325;42.520;27.448;2022-07-22T05:00:34;101046.09;;;22.69;100.00
8575;BME280;4325;42.520;27.448;2022-07-22T05:03:00;101044.84;;;22.79;100.00
8575;BME280;4325;42.520;27.448;2022-07-22T05:05:29;101046.59;;;22.83;100.00
8575;BME280;4325;42.520;27.448;2022-07-22T05:07:55;101044.75;;;22.75;100.00
8575;BME280;4325;42.520;27.448;2022-07-22T05:10:22;101044.16;;;22.82;100.00
8575;BME280;4325;42.520;27.448;2022-07-22T05:12:49;101045.66;;;22.79;100.00
8575;BME280;4325;42.520;27.448;2022-07-22T05:15:16;101052.19;;;22.83;100.00
8575;BME280;4325;42.520;27.448;2022-07-22T05:17:43;101051.75;;;22.93;100.00
8575;BME280;4325;42.520;27.448;2022-07-22T05:20:10;101050.38;;;22.99;100.00
8575;BME280;4325;42.520;27.448;2022-07-22T05:22:40;101044.56;;;23.05;100.00
8575;BME280;4325;42.520;27.448;2022-07-22T05:25:07;101040.25;;;23.07;100.00
8575;BME280;4325;42.520;27.448;2022-07-22T05:27:34;101046.75;;;23.11;100.00
8575;BME280;4325;42.520;27.448;2022-07-22T05:30:01;101043.75;;;23.16;100.00
8575;BME280;4325;42.520;27.448;2022-07-22T05:32:28;101047.59;;;23.24;100.00
8575;BME280;4325;42.520;27.448;2022-07-22T05:34:55;101043.63;;;23.37;100.00
8575;BME280;4325;42.520;27.448;2022-07-22T05:37:21;101041.56;;;23.46;100.00
8575;BME280;4325;42.520;27.448;2022-07-22T05:39:50;101043.75;;;23.52;100.00
8575;BME280;4325;42.520;27.448;2022-07-22T05:42:16;101043.59;;;23.61;100.00
8575;BME280;4325;42.520;27.448;2022-07-22T05:44:43;101041.84;;;23.69;100.00
8575;BME280;4325;42.520;27.448;2022-07-22T05:47:10;101047.22;;;23.74;100.00
8575;BME280;4325;42.520;27.448;2022-07-22T05:49:38;101047.66;;;23.76;100.00
8575;BME280;4325;42.520;27.448;2022-07-22T05:52:05;101057.00;;;23.80;100.00
8575;BME280;4325;42.520;27.448;2022-07-22T05:54:32;101050.78;;;23.86;100.00
8575;BME280;4325;42.520;27.448;2022-07-22T05:57:01;101054.13;;;24.04;100.00
8575;BME280;4325;42.520;27.448;2022-07-22T05:59:28;101046.06;;;24.14;100.00
8575;BME280;4325;42.520;27.448;2022-07-22T06:01:55;101054.31;;;24.23;100.00
8575;BME280;4325;42.520;27.448;2022-07-22T06:04:22;101041.91;;;24.36;100.00
8575;BME280;4325;42.520;27.448;2022-07-22T06:06:49;101044.19;;;24.46;100.00
8575;BME280;4325;42.520;27.448;2022-07-22T06:09:16;101049.63;;;24.55;100.00
8575;BME280;4325;42.520;27.448;2022-07-22T06:11:43;101049.72;;;24.58;100.00
8575;BME280;4325;42.520;27.448;2022-07-22T06:14:11;101046.31;;;24.65;100.00
8575;BME280;4325;42.520;27.448;2022-07-22T06:16:38;101051.53;;;24.66;100.00
8575;BME280;4325;42.520;27.448;2022-07-22T06:19:05;101050.91;;;24.73;100.00
8575;BME280;4325;42.520;27.448;2022-07-22T06:21:32;101052.31;;;24.79;100.00
8575;BME280;4325;42.520;27.448;2022-07-22T06:23:59;101052.88;;;24.84;100.00
8575;BME280;4325;42.520;27.448;2022-07-22T06:26:25;101050.25;;;24.91;100.00
8575;BME280;4325;42.520;27.448;2022-07-22T06:28:52;101043.47;;;24.92;100.00
8575;BME280;4325;42.520;27.448;2022-07-22T06:31:20;101048.16;;;24.88;100.00
8575;BME280;4325;42.520;27.448;2022-07-22T06:33:47;101045.94;;;24.94;100.00
8575;BME280;4325;42.520;27.448;2022-07-22T06:36:14;101044.19;;;25.05;100.00
8575;BME280;4325;42.520;27.448;2022-07-22T06:38:43;101035.53;;;25.26;100.00
8575;BME280;4325;42.520;27.448;2022-07-22T06:41:10;101052.69;;;25.40;94.52
8575;BME280;4325;42.520;27.448;2022-07-22T06:43:36;101041.38;;;25.52;96.16
8575;BME280;4325;42.520;27.448;2022-07-22T06:46:04;101043.84;;;25.73;95.35
8575;BME280;4325;42.520;27.448;2022-07-22T06:48:32;101037.66;;;25.83;94.70
8575;BME280;4325;42.520;27.448;2022-07-22T06:50:59;101034.28;;;25.74;93.85
8575;BME280;4325;42.520;27.448;2022-07-22T06:53:26;101029.59;;;25.62;95.56
8575;BME280;4325;42.520;27.448;2022-07-22T06:55:53;101037.56;;;25.60;96.05
8575;BME280;4325;42.520;27.448;2022-07-22T06:58:20;101044.44;;;25.63;95.40
8575;BME280;4325;42.520;27.448;2022-07-22T07:00:46;101033.56;;;25.61;94.56
8575;BME280;4325;42.520;27.448;2022-07-22T07:03:13;101039.78;;;25.70;95.37
8575;BME280;4325;42.520;27.448;2022-07-22T07:05:42;101039.38;;;25.87;92.48
8575;BME280;4325;42.520;27.448;2022-07-22T07:08:08;101038.19;;;25.88;89.91
8575;BME280;4325;42.520;27.448;2022-07-22T07:10:35;101044.91;;;25.84;90.32
8575;BME280;4325;42.520;27.448;2022-07-22T07:13:02;101043.81;;;25.88;90.18
8575;BME280;4325;42.520;27.448;2022-07-22T07:15:29;101040.00;;;25.96;88.22
8575;BME280;4325;42.520;27.448;2022-07-22T07:17:56;101045.63;;;26.15;87.56
8575;BME280;4325;42.520;27.448;2022-07-22T07:20:23;101040.31;;;26.30;85.38
8575;BME280;4325;42.520;27.448;2022-07-22T07:22:52;101039.78;;;26.43;80.63
8575;BME280;4325;42.520;27.448;2022-07-22T07:25:19;101045.91;;;26.49;80.55
8575;BME280;4325;42.520;27.448;2022-07-22T07:27:46;101048.84;;;26.56;79.81
8575;BME280;4325;42.520;27.448;2022-07-22T07:30:13;101038.50;;;26.60;77.49
8575;BME280;4325;42.520;27.448;2022-07-22T07:32:40;101041.16;;;26.72;76.88
8575;BME280;4325;42.520;27.448;2022-07-22T07:35:07;101046.53;;;26.80;75.33
8575;BME280;4325;42.520;27.448;2022-07-22T07:37:34;101047.19;;;26.93;74.59
8575;BME280;4325;42.520;27.448;2022-07-22T07:40:03;101053.03;;;27.07;72.28
8575;BME280;4325;42.520;27.448;2022-07-22T07:42:31;101053.97;;;27.15;70.41
8575;BME280;4325;42.520;27.448;2022-07-22T07:44:58;101054.16;;;27.25;71.63
8575;BME280;4325;42.520;27.448;2022-07-22T07:47:24;101052.03;;;27.41;69.33
8575;BME280;4325;42.520;27.448;2022-07-22T07:49:51;101058.25;;;27.54;68.12
8575;BME280;4325;42.520;27.448;2022-07-22T07:52:18;101060.25;;;27.54;66.55
8575;BME280;4325;42.520;27.448;2022-07-22T07:54:45;101057.56;;;27.61;65.80
8575;BME280;4325;42.520;27.448;2022-07-22T07:57:14;101050.84;;;27.69;65.14
8575;BME280;4325;42.520;27.448;2022-07-22T07:59:41;101057.84;;;27.82;63.59
8575;BME280;4325;42.520;27.448;2022-07-22T08:02:08;101054.38;;;27.92;62.65
8575;BME280;4325;42.520;27.448;2022-07-22T08:04:36;101051.97;;;27.90;61.25
8575;BME280;4325;42.520;27.448;2022-07-22T08:07:03;101049.56;;;27.92;59.83
8575;BME280;4325;42.520;27.448;2022-07-22T08:09:30;101061.84;;;28.07;59.81
8575;BME280;4325;42.520;27.448;2022-07-22T08:11:57;101057.94;;;28.15;57.97
8575;BME280;4325;42.520;27.448;2022-07-22T08:14:25;101053.94;;;28.16;57.01
8575;BME280;4325;42.520;27.448;2022-07-22T08:16:52;101055.25;;;28.26;56.42
8575;BME280;4325;42.520;27.448;2022-07-22T08:19:19;101053.41;;;28.40;54.73
8575;BME280;4325;42.520;27.448;2022-07-22T08:21:46;101062.59;;;28.63;50.34
8575;BME280;4325;42.520;27.448;2022-07-22T08:24:13;101060.31;;;28.79;50.31
8575;BME280;4325;42.520;27.448;2022-07-22T08:26:39;101050.41;;;28.93;49.48
8575;BME280;4325;42.520;27.448;2022-07-22T08:29:06;101045.34;;;29.12;46.96
8575;BME280;4325;42.520;27.448;2022-07-22T08:31:37;101052.41;;;29.32;43.91
8575;BME280;4325;42.520;27.448;2022-07-22T08:34:04;101051.31;;;29.55;43.53
8575;BME280;4325;42.520;27.448;2022-07-22T08:36:31;101053.22;;;29.94;42.89
8575;BME280;4325;42.520;27.448;2022-07-22T08:38:59;101055.06;;;30.45;41.59
8575;BME280;4325;42.520;27.448;2022-07-22T08:41:26;101050.41;;;31.12;40.29
8575;BME280;4325;42.520;27.448;2022-07-22T08:43:53;101048.75;;;31.40;38.20
8575;BME280;4325;42.520;27.448;2022-07-22T08:46:20;101050.78;;;31.78;39.00
8575;BME280;4325;42.520;27.448;2022-07-22T08:48:48;101056.53;;;32.65;37.06
8575;BME280;4325;42.520;27.448;2022-07-22T08:51:15;101052.22;;;33.01;36.84
8575;BME280;4325;42.520;27.448;2022-07-22T08:53:42;101051.72;;;33.64;36.19
8575;BME280;4325;42.520;27.448;2022-07-22T08:56:11;101046.94;;;34.59;34.08
8575;BME280;4325;42.520;27.448;2022-07-22T08:58:39;101046.00;;;35.46;33.36
8575;BME280;4325;42.520;27.448;2022-07-22T09:01:08;101049.09;;;36.73;31.00
8575;BME280;4325;42.520;27.448;2022-07-22T09:03:45;101054.38;;;36.94;30.03
8575;BME280;4325;42.520;27.448;2022-07-22T09:06:13;101036.88;;;37.40;29.05
8575;BME280;4325;42.520;27.448;2022-07-22T09:08:51;101036.81;;;36.76;29.87
8575;BME280;4325;42.520;27.448;2022-07-22T09:11:19;101040.44;;;35.82;31.93
8575;BME280;4325;42.520;27.448;2022-07-22T09:13:47;101049.47;;;35.34;31.11
8575;BME280;4325;42.520;27.448;2022-07-22T09:16:15;101040.91;;;35.10;31.84
8575;BME280;4325;42.520;27.448;2022-07-22T09:18:46;101041.94;;;35.66;30.09
8575;BME280;4325;42.520;27.448;2022-07-22T09:21:15;101033.63;;;35.75;29.01
8575;BME280;4325;42.520;27.448;2022-07-22T09:23:42;101032.66;;;36.25;27.23
8575;BME280;4325;42.520;27.448;2022-07-22T09:26:29;101048.50;;;36.65;25.90
8575;BME280;4325;42.520;27.448;2022-07-22T09:28:57;101042.09;;;37.58;24.38
8575;BME280;4325;42.520;27.448;2022-07-22T09:31:25;101037.53;;;38.05;23.25
8575;BME280;4325;42.520;27.448;2022-07-22T09:33:52;101038.81;;;38.71;23.16
8575;BME280;4325;42.520;27.448;2022-07-22T09:36:22;101045.72;;;39.58;21.49
8575;BME280;4325;42.520;27.448;2022-07-22T09:38:49;101051.72;;;39.51;21.78
8575;BME280;4325;42.520;27.448;2022-07-22T09:41:16;101039.38;;;39.76;22.57
8575;BME280;4325;42.520;27.448;2022-07-22T09:43:44;101035.84;;;40.06;22.21
8575;BME280;4325;42.520;27.448;2022-07-22T09:46:11;101040.81;;;41.37;20.60
8575;BME280;4325;42.520;27.448;2022-07-22T09:48:39;101051.72;;;41.79;20.85
8575;BME280;4325;42.520;27.448;2022-07-22T09:51:07;101038.53;;;42.50;20.52
8575;BME280;4325;42.520;27.448;2022-07-22T09:53:35;101042.09;;;43.44;20.38
8575;BME280;4325;42.520;27.448;2022-07-22T09:56:04;101043.50;;;43.24;19.74
8575;BME280;4325;42.520;27.448;2022-07-22T09:58:31;101041.91;;;42.31;19.67
8575;BME280;4325;42.520;27.448;2022-07-22T10:01:00;101041.06;;;42.57;20.16
8575;BME280;4325;42.520;27.448;2022-07-22T10:03:29;101037.16;;;43.82;19.86
8575;BME280;4325;42.520;27.448;2022-07-22T10:05:57;101034.28;;;42.79;18.83
8575;BME280;4325;42.520;27.448;2022-07-22T10:08:25;101033.31;;;42.22;18.90
8575;BME280;4325;42.520;27.448;2022-07-22T10:10:59;101037.84;;;41.10;19.51
8575;BME280;4325;42.520;27.448;2022-07-22T10:13:27;101031.47;;;41.15;19.94
8575;BME280;4325;42.520;27.448;2022-07-22T10:15:55;101036.34;;;41.55;19.69
8575;BME280;4325;42.520;27.448;2022-07-22T10:18:22;101029.59;;;42.30;19.05
8575;BME280;4325;42.520;27.448;2022-07-22T10:21:01;101028.28;;;42.91;18.86
8575;BME280;4325;42.520;27.448;2022-07-22T10:23:28;101027.50;;;42.40;18.39
8575;BME280;4325;42.520;27.448;2022-07-22T10:25:59;101020.38;;;43.33;18.87
8575;BME280;4325;42.520;27.448;2022-07-22T10:28:28;101025.53;;;43.91;17.29
8575;BME280;4325;42.520;27.448;2022-07-22T10:31:17;101023.72;;;43.79;16.81
8575;BME280;4325;42.520;27.448;2022-07-22T10:33:48;101025.22;;;43.51;16.07
8575;BME280;4325;42.520;27.448;2022-07-22T10:36:29;101014.13;;;42.69;16.70
8575;BME280;4325;42.520;27.448;2022-07-22T10:39:07;101011.72;;;41.99;17.65
8575;BME280;4325;42.520;27.448;2022-07-22T10:41:37;101018.78;;;41.89;17.89
8575;BME280;4325;42.520;27.448;2022-07-22T10:44:05;101010.09;;;42.34;17.20
8575;BME280;4325;42.520;27.448;2022-07-22T10:46:49;101015.88;;;42.25;18.05
8575;BME280;4325;42.520;27.448;2022-07-22T10:49:17;101007.88;;;42.29;17.57
8575;BME280;4325;42.520;27.448;2022-07-22T10:52:08;101001.56;;;42.58;17.77
8575;BME280;4325;42.520;27.448;2022-07-22T10:57:36;101008.69;;;43.04;17.11
8575;BME280;4325;42.520;27.448;2022-07-22T11:00:04;101001.63;;;42.31;17.51
8575;BME280;4325;42.520;27.448;2022-07-22T11:02:33;101005.94;;;43.10;17.02
8575;BME280;4325;42.520;27.448;2022-07-22T11:05:00;101007.53;;;43.58;16.44
8575;BME280;4325;42.520;27.448;2022-07-22T11:07:27;100999.75;;;43.73;16.38
8575;BME280;4325;42.520;27.448;2022-07-22T11:10:08;101007.00;;;45.00;16.25
8575;BME280;4325;42.520;27.448;2022-07-22T11:12:37;101007.88;;;45.67;15.50
8575;BME280;4325;42.520;27.448;2022-07-22T11:15:05;100998.63;;;45.83;15.18
8575;BME280;4325;42.520;27.448;2022-07-22T11:17:33;100998.25;;;46.53;15.33
8575;BME280;4325;42.520;27.448;2022-07-22T11:20:01;100996.44;;;46.92;15.14
8575;BME280;4325;42.520;27.448;2022-07-22T11:22:28;100998.25;;;46.53;14.49
8575;BME280;4325;42.520;27.448;2022-07-22T11:24:54;101002.50;;;47.36;14.84
8575;BME280;4325;42.520;27.448;2022-07-22T11:27:22;101002.97;;;47.83;15.25
8575;BME280;4325;42.520;27.448;2022-07-22T11:29:52;100989.53;;;48.46;14.82
8575;BME280;4325;42.520;27.448;2022-07-22T11:32:22;100990.09;;;48.61;14.16
8575;BME280;4325;42.520;27.448;2022-07-22T11:34:50;100990.53;;;49.21;14.01
8575;BME280;4325;42.520;27.448;2022-07-22T11:37:18;100988.25;;;49.49;14.09
8575;BME280;4325;42.520;27.448;2022-07-22T11:39:45;100987.09;;;49.74;13.14
8575;BME280;4325;42.520;27.448;2022-07-22T11:42:12;100990.19;;;49.93;13.28
8575;BME280;4325;42.520;27.448;2022-07-22T11:44:40;100987.97;;;50.40;12.90
8575;BME280;4325;42.520;27.448;2022-07-22T11:47:09;100987.91;;;50.75;12.98
8575;BME280;4325;42.520;27.448;2022-07-22T11:49:38;100979.50;;;50.06;12.21
8575;BME280;4325;42.520;27.448;2022-07-22T11:52:07;100982.94;;;50.05;13.89
8575;BME280;4325;42.520;27.448;2022-07-22T11:54:37;100978.75;;;49.54;13.51
8575;BME280;4325;42.520;27.448;2022-07-22T11:57:05;100983.72;;;48.79;14.18
8575;BME280;4325;42.520;27.448;2022-07-22T11:59:32;100971.84;;;48.66;14.85
8575;BME280;4325;42.520;27.448;2022-07-22T12:02:00;100972.06;;;47.15;14.85
8575;BME280;4325;42.520;27.448;2022-07-22T12:04:29;100967.44;;;46.92;15.84
8575;BME280;4325;42.520;27.448;2022-07-22T12:06:58;100968.16;;;46.44;16.37
8575;BME280;4325;42.520;27.448;2022-07-22T12:09:29;100968.41;;;46.15;16.67
8575;BME280;4325;42.520;27.448;2022-07-22T12:11:57;100969.34;;;46.64;17.03
8575;BME280;4325;42.520;27.448;2022-07-22T12:14:26;100975.78;;;47.21;16.79
8575;BME280;4325;42.520;27.448;2022-07-22T12:16:55;100963.09;;;47.13;16.62
8575;BME280;4325;42.520;27.448;2022-07-22T12:19:22;100972.59;;;47.84;16.93
8575;BME280;4325;42.520;27.448;2022-07-22T12:21:53;100962.38;;;48.21;16.70
8575;BME280;4325;42.520;27.448;2022-07-22T12:24:29;100963.38;;;48.74;16.39
8575;BME280;4325;42.520;27.448;2022-07-22T12:26:57;100969.88;;;49.19;15.24
8575;BME280;4325;42.520;27.448;2022-07-22T12:29:25;100953.06;;;48.84;14.73
8575;BME280;4325;42.520;27.448;2022-07-22T12:31:54;100965.25;;;48.49;15.02
8575;BME280;4325;42.520;27.448;2022-07-22T12:34:34;100960.66;;;47.65;14.64
8575;BME280;4325;42.520;27.448;2022-07-22T12:37:12;100945.28;;;46.52;16.22
8575;BME280;4325;42.520;27.448;2022-07-22T12:39:39;100941.56;;;46.15;17.05
8575;BME280;4325;42.520;27.448;2022-07-22T12:42:16;100940.50;;;46.43;17.41
8575;BME280;4325;42.520;27.448;2022-07-22T12:44:51;100933.28;;;47.07;17.11
8575;BME280;4325;42.520;27.448;2022-07-22T12:47:39;100937.97;;;47.69;17.05
8575;BME280;4325;42.520;27.448;2022-07-22T12:50:23;100931.88;;;47.50;16.48
8575;BME280;4325;42.520;27.448;2022-07-22T12:52:53;100932.16;;;47.52;17.58
8575;BME280;4325;42.520;27.448;2022-07-22T12:55:20;100942.00;;;47.94;17.32
8575;BME280;4325;42.520;27.448;2022-07-22T12:57:47;100939.38;;;48.34;18.50
8575;BME280;4325;42.520;27.448;2022-07-22T13:00:19;100932.78;;;48.51;17.05
8575;BME280;4325;42.520;27.448;2022-07-22T13:02:46;100939.81;;;48.83;17.44